sensor_id;sensor_type;location;lat;lon;timestamp;P1;durP1;ratioP1;P2;durP2;ratioP2
7997;SDS011;4044;49.814;7.828;2022-11-15T00:00:51;22.90;;;18.73;;
7997;SDS011;4044;49.814;7.828;2022-11-15T00:03:17;23.27;;;19.27;;
7997;SDS011;4044;49.814;7.828;2022-11-15T00:05:45;24.67;;;20.13;;
7997;SDS011;4044;49.814;7.828;2022-11-15T00:08:11;21.40;;;19.00;;
7997;SDS011;4044;49.814;7.828;2022-11-15T00:10:37;25.10;;;20.47;;
7997;SDS011;4044;49.814;7.828;2022-11-15T00:13:10;22.90;;;19.23;;
7997;SDS011;4044;49.814;7.828;2022-11-15T00:15:37;21.03;;;18.50;;
7997;SDS011;4044;49.814;7.828;2022-11-15T00:18:04;23.97;;;18.60;;
7997;SDS011;4044;49.814;7.828;2022-11-15T00:20:31;25.50;;;18.60;;
7997;SDS011;4044;49.814;7.828;2022-11-15T00:22:58;18.97;;;16.67;;
7997;SDS011;4044;49.814;7.828;2022-11-15T00:25:24;21.20;;;16.70;;
7997;SDS011;4044;49.814;7.828;2022-11-15T00:27:50;20.53;;;16.40;;
7997;SDS011;4044;49.814;7.828;2022-11-15T00:30:19;21.90;;;17.83;;
7997;SDS011;4044;49.814;7.828;2022-11-15T00:32:45;22.27;;;17.70;;
7997;SDS011;4044;49.814;7.828;2022-11-15T00:35:10;20.60;;;16.77;;
7997;SDS011;4044;49.814;7.828;2022-11-15T00:37:36;20.23;;;15.70;;
7997;SDS011;4044;49.814;7.828;2022-11-15T00:40:01;20.07;;;16.80;;
7997;SDS011;4044;49.814;7.828;2022-11-15T00:42:27;20.30;;;17.50;;
7997;SDS011;4044;49.814;7.828;2022-11-15T00:44:52;19.07;;;16.60;;
7997;SDS011;4044;49.814;7.828;2022-11-15T00:47:18;18.70;;;16.23;;
7997;SDS011;4044;49.814;7.828;2022-11-15T00:49:43;20.13;;;17.07;;
7997;SDS011;4044;49.814;7.828;2022-11-15T00:52:09;28.03;;;17.27;;
7997;SDS011;4044;49.814;7.828;2022-11-15T00:54:34;19.87;;;17.70;;
7997;SDS011;4044;49.814;7.828;2022-11-15T00:57:00;18.70;;;16.20;;
7997;SDS011;4044;49.814;7.828;2022-11-15T00:59:25;19.70;;;16.03;;
7997;SDS011;4044;49.814;7.828;2022-11-15T01:01:51;20.77;;;18.43;;
7997;SDS011;4044;49.814;7.828;2022-11-15T01:04:16;18.47;;;16.30;;
7997;SDS011;4044;49.814;7.828;2022-11-15T01:06:42;17.97;;;15.53;;
7997;SDS011;4044;49.814;7.828;2022-11-15T01:09:07;18.47;;;16.47;;
7997;SDS011;4044;49.814;7.828;2022-11-15T01:11:33;17.57;;;15.70;;
7997;SDS011;4044;49.814;7.828;2022-11-15T01:13:58;18.30;;;16.30;;
7997;SDS011;4044;49.814;7.828;2022-11-15T01:16:24;17.60;;;15.20;;
7997;SDS011;4044;49.814;7.828;2022-11-15T01:18:50;17.40;;;15.30;;
7997;SDS011;4044;49.814;7.828;2022-11-15T01:21:16;17.87;;;15.70;;
7997;SDS011;4044;49.814;7.828;2022-11-15T01:23:43;18.30;;;16.40;;
7997;SDS011;4044;49.814;7.828;2022-11-15T01:26:11;18.33;;;16.07;;
7997;SDS011;4044;49.814;7.828;2022-11-15T01:28:40;17.70;;;15.70;;
7997;SDS011;4044;49.814;7.828;2022-11-15T01:31:09;19.80;;;16.70;;
7997;SDS011;4044;49.814;7.828;2022-11-15T01:33:40;22.90;;;17.30;;
7997;SDS011;4044;49.814;7.828;2022-11-15T01:36:07;18.13;;;16.13;;
7997;SDS011;4044;49.814;7.828;2022-11-15T01:38:36;17.67;;;15.63;;
7997;SDS011;4044;49.814;7.828;2022-11-15T01:41:02;18.37;;;15.00;;
7997;SDS011;4044;49.814;7.828;2022-11-15T01:43:29;17.10;;;15.30;;
7997;SDS011;4044;49.814;7.828;2022-11-15T01:48:56;17.60;;;15.50;;
7997;SDS011;4044;49.814;7.828;2022-11-15T01:51:25;18.77;;;15.80;;
7997;SDS011;4044;49.814;7.828;2022-11-15T01:53:55;19.50;;;14.57;;
7997;SDS011;4044;49.814;7.828;2022-11-15T01:56:25;17.87;;;14.90;;
7997;SDS011;4044;49.814;7.828;2022-11-15T01:58:55;17.33;;;14.57;;
7997;SDS011;4044;49.814;7.828;2022-11-15T02:01:23;17.27;;;15.03;;
7997;SDS011;4044;49.814;7.828;2022-11-15T02:03:52;15.80;;;14.07;;
7997;SDS011;4044;49.814;7.828;2022-11-15T02:06:22;17.20;;;15.40;;
7997;SDS011;4044;49.814;7.828;2022-11-15T02:08:49;18.00;;;15.03;;
7997;SDS011;4044;49.814;7.828;2022-11-15T02:11:15;16.47;;;14.23;;
7997;SDS011;4044;49.814;7.828;2022-11-15T02:13:41;17.67;;;15.13;;
7997;SDS011;4044;49.814;7.828;2022-11-15T02:16:18;16.50;;;14.80;;
7997;SDS011;4044;49.814;7.828;2022-11-15T02:24:44;19.57;;;15.07;;
7997;SDS011;4044;49.814;7.828;2022-11-15T02:27:28;16.93;;;14.33;;
7997;SDS011;4044;49.814;7.828;2022-11-15T02:30:23;15.37;;;13.80;;
7997;SDS011;4044;49.814;7.828;2022-11-15T02:35:46;15.77;;;14.13;;
7997;SDS011;4044;49.814;7.828;2022-11-15T02:38:22;17.10;;;15.10;;
7997;SDS011;4044;49.814;7.828;2022-11-15T02:41:02;18.33;;;15.70;;
7997;SDS011;4044;49.814;7.828;2022-11-15T02:43:37;16.73;;;14.93;;
7997;SDS011;4044;49.814;7.828;2022-11-15T02:49:43;20.23;;;15.57;;
7997;SDS011;4044;49.814;7.828;2022-11-15T02:52:18;17.67;;;15.67;;
7997;SDS011;4044;49.814;7.828;2022-11-15T02:54:55;16.23;;;14.23;;
7997;SDS011;4044;49.814;7.828;2022-11-15T02:57:27;17.70;;;15.43;;
7997;SDS011;4044;49.814;7.828;2022-11-15T03:02:33;17.27;;;15.00;;
7997;SDS011;4044;49.814;7.828;2022-11-15T03:05:04;16.70;;;14.03;;
7997;SDS011;4044;49.814;7.828;2022-11-15T03:08:58;18.87;;;15.03;;
7997;SDS011;4044;49.814;7.828;2022-11-15T03:11:17;18.10;;;15.33;;
7997;SDS011;4044;49.814;7.828;2022-11-15T03:14:02;17.80;;;15.90;;
7997;SDS011;4044;49.814;7.828;2022-11-15T03:16:44;18.47;;;15.43;;
7997;SDS011;4044;49.814;7.828;2022-11-15T03:22:21;17.97;;;15.30;;
7997;SDS011;4044;49.814;7.828;2022-11-15T03:24:53;16.43;;;14.40;;
7997;SDS011;4044;49.814;7.828;2022-11-15T03:27:23;17.67;;;15.00;;
7997;SDS011;4044;49.814;7.828;2022-11-15T03:29:55;17.73;;;15.10;;
7997;SDS011;4044;49.814;7.828;2022-11-15T03:32:26;16.97;;;15.17;;
7997;SDS011;4044;49.814;7.828;2022-11-15T03:35:02;17.90;;;16.00;;
7997;SDS011;4044;49.814;7.828;2022-11-15T03:37:33;17.63;;;15.53;;
7997;SDS011;4044;49.814;7.828;2022-11-15T03:40:03;17.97;;;15.20;;
7997;SDS011;4044;49.814;7.828;2022-11-15T03:45:35;18.37;;;15.13;;
7997;SDS011;4044;49.814;7.828;2022-11-15T03:48:12;17.97;;;16.07;;
7997;SDS011;4044;49.814;7.828;2022-11-15T03:50:41;17.03;;;15.23;;
7997;SDS011;4044;49.814;7.828;2022-11-15T03:53:08;19.23;;;16.13;;
7997;SDS011;4044;49.814;7.828;2022-11-15T03:55:35;19.87;;;15.33;;
7997;SDS011;4044;49.814;7.828;2022-11-15T03:58:00;16.27;;;14.57;;
7997;SDS011;4044;49.814;7.828;2022-11-15T04:00:27;17.77;;;15.07;;
7997;SDS011;4044;49.814;7.828;2022-11-15T04:02:53;17.43;;;14.87;;
7997;SDS011;4044;49.814;7.828;2022-11-15T04:05:18;16.30;;;14.03;;
7997;SDS011;4044;49.814;7.828;2022-11-15T04:07:44;15.83;;;14.10;;
7997;SDS011;4044;49.814;7.828;2022-11-15T04:10:10;18.67;;;14.47;;
7997;SDS011;4044;49.814;7.828;2022-11-15T04:12:37;16.67;;;14.60;;
7997;SDS011;4044;49.814;7.828;2022-11-15T04:15:08;17.67;;;15.13;;
7997;SDS011;4044;49.814;7.828;2022-11-15T04:17:35;18.00;;;14.97;;
7997;SDS011;4044;49.814;7.828;2022-11-15T04:20:05;16.40;;;14.57;;
7997;SDS011;4044;49.814;7.828;2022-11-15T04:23:01;19.37;;;15.67;;
7997;SDS011;4044;49.814;7.828;2022-11-15T04:25:49;19.77;;;16.30;;
7997;SDS011;4044;49.814;7.828;2022-11-15T04:28:16;18.93;;;16.43;;
7997;SDS011;4044;49.814;7.828;2022-11-15T04:30:42;17.83;;;15.30;;
7997;SDS011;4044;49.814;7.828;2022-11-15T04:33:07;19.90;;;16.47;;
7997;SDS011;4044;49.814;7.828;2022-11-15T04:35:33;18.20;;;15.43;;
7997;SDS011;4044;49.814;7.828;2022-11-15T04:37:59;18.47;;;14.50;;
7997;SDS011;4044;49.814;7.828;2022-11-15T04:40:25;15.33;;;13.80;;
7997;SDS011;4044;49.814;7.828;2022-11-15T04:42:51;20.67;;;16.63;;
7997;SDS011;4044;49.814;7.828;2022-11-15T04:45:16;18.10;;;15.20;;
7997;SDS011;4044;49.814;7.828;2022-11-15T04:47:45;17.83;;;15.90;;
7997;SDS011;4044;49.814;7.828;2022-11-15T04:50:11;18.80;;;15.90;;
7997;SDS011;4044;49.814;7.828;2022-11-15T04:52:39;24.63;;;17.70;;
7997;SDS011;4044;49.814;7.828;2022-11-15T04:55:06;20.03;;;15.73;;
7997;SDS011;4044;49.814;7.828;2022-11-15T04:57:31;19.23;;;16.23;;
7997;SDS011;4044;49.814;7.828;2022-11-15T04:59:57;22.50;;;17.40;;
7997;SDS011;4044;49.814;7.828;2022-11-15T05:02:22;20.67;;;15.90;;
7997;SDS011;4044;49.814;7.828;2022-11-15T05:04:48;21.10;;;16.00;;
7997;SDS011;4044;49.814;7.828;2022-11-15T05:07:13;19.37;;;17.07;;
7997;SDS011;4044;49.814;7.828;2022-11-15T05:09:39;19.17;;;16.90;;
7997;SDS011;4044;49.814;7.828;2022-11-15T05:12:04;20.30;;;16.60;;
7997;SDS011;4044;49.814;7.828;2022-11-15T05:14:30;20.17;;;17.20;;
7997;SDS011;4044;49.814;7.828;2022-11-15T05:16:56;20.43;;;17.17;;
7997;SDS011;4044;49.814;7.828;2022-11-15T05:19:21;19.13;;;16.13;;
7997;SDS011;4044;49.814;7.828;2022-11-15T05:21:47;19.37;;;16.17;;
7997;SDS011;4044;49.814;7.828;2022-11-15T05:24:12;18.40;;;16.00;;
7997;SDS011;4044;49.814;7.828;2022-11-15T05:26:38;22.43;;;17.57;;
7997;SDS011;4044;49.814;7.828;2022-11-15T05:29:03;23.00;;;17.50;;
7997;SDS011;4044;49.814;7.828;2022-11-15T05:31:29;20.27;;;16.37;;
7997;SDS011;4044;49.814;7.828;2022-11-15T05:33:55;21.20;;;17.53;;
7997;SDS011;4044;49.814;7.828;2022-11-15T05:38:58;24.23;;;20.47;;
7997;SDS011;4044;49.814;7.828;2022-11-15T05:41:26;22.80;;;19.77;;
7997;SDS011;4044;49.814;7.828;2022-11-15T05:43:56;20.30;;;17.93;;
7997;SDS011;4044;49.814;7.828;2022-11-15T05:46:22;19.43;;;15.57;;
7997;SDS011;4044;49.814;7.828;2022-11-15T05:48:48;23.20;;;17.67;;
7997;SDS011;4044;49.814;7.828;2022-11-15T05:51:15;20.00;;;17.13;;
7997;SDS011;4044;49.814;7.828;2022-11-15T05:53:43;19.63;;;17.53;;
7997;SDS011;4044;49.814;7.828;2022-11-15T05:56:09;23.87;;;19.03;;
7997;SDS011;4044;49.814;7.828;2022-11-15T05:58:35;22.47;;;20.03;;
7997;SDS011;4044;49.814;7.828;2022-11-15T06:01:02;23.40;;;19.60;;
7997;SDS011;4044;49.814;7.828;2022-11-15T06:03:27;24.83;;;20.90;;
7997;SDS011;4044;49.814;7.828;2022-11-15T06:05:53;25.83;;;18.40;;
7997;SDS011;4044;49.814;7.828;2022-11-15T06:08:19;21.03;;;16.57;;
7997;SDS011;4044;49.814;7.828;2022-11-15T06:10:44;22.90;;;17.93;;
7997;SDS011;4044;49.814;7.828;2022-11-15T06:13:10;22.47;;;18.33;;
7997;SDS011;4044;49.814;7.828;2022-11-15T06:15:36;20.43;;;17.03;;
7997;SDS011;4044;49.814;7.828;2022-11-15T06:18:01;23.53;;;17.27;;
7997;SDS011;4044;49.814;7.828;2022-11-15T06:20:27;23.30;;;17.40;;
7997;SDS011;4044;49.814;7.828;2022-11-15T06:23:01;22.97;;;17.23;;
7997;SDS011;4044;49.814;7.828;2022-11-15T06:25:28;20.43;;;15.50;;
7997;SDS011;4044;49.814;7.828;2022-11-15T06:27:55;22.73;;;18.23;;
7997;SDS011;4044;49.814;7.828;2022-11-15T06:30:22;26.40;;;19.37;;
7997;SDS011;4044;49.814;7.828;2022-11-15T06:32:48;20.30;;;16.10;;
7997;SDS011;4044;49.814;7.828;2022-11-15T06:35:14;19.87;;;16.70;;
7997;SDS011;4044;49.814;7.828;2022-11-15T06:37:40;24.40;;;18.10;;
7997;SDS011;4044;49.814;7.828;2022-11-15T06:40:07;20.07;;;17.17;;
7997;SDS011;4044;49.814;7.828;2022-11-15T06:42:33;21.70;;;16.80;;
7997;SDS011;4044;49.814;7.828;2022-11-15T06:44:59;22.30;;;17.33;;
7997;SDS011;4044;49.814;7.828;2022-11-15T06:47:24;19.53;;;15.70;;
7997;SDS011;4044;49.814;7.828;2022-11-15T06:49:50;20.77;;;16.37;;
7997;SDS011;4044;49.814;7.828;2022-11-15T06:52:15;19.13;;;16.20;;
7997;SDS011;4044;49.814;7.828;2022-11-15T06:54:43;21.03;;;17.20;;
7997;SDS011;4044;49.814;7.828;2022-11-15T06:57:09;19.87;;;15.57;;
7997;SDS011;4044;49.814;7.828;2022-11-15T06:59:35;17.37;;;14.83;;
7997;SDS011;4044;49.814;7.828;2022-11-15T07:02:01;18.87;;;16.17;;
7997;SDS011;4044;49.814;7.828;2022-11-15T07:04:27;18.10;;;15.43;;
7997;SDS011;4044;49.814;7.828;2022-11-15T07:06:52;19.87;;;16.17;;
7997;SDS011;4044;49.814;7.828;2022-11-15T07:09:18;19.33;;;14.97;;
7997;SDS011;4044;49.814;7.828;2022-11-15T07:11:43;21.70;;;16.40;;
7997;SDS011;4044;49.814;7.828;2022-11-15T07:14:09;18.73;;;15.47;;
7997;SDS011;4044;49.814;7.828;2022-11-15T07:16:35;19.53;;;15.60;;
7997;SDS011;4044;49.814;7.828;2022-11-15T07:19:01;24.83;;;19.03;;
7997;SDS011;4044;49.814;7.828;2022-11-15T07:21:27;20.27;;;16.70;;
7997;SDS011;4044;49.814;7.828;2022-11-15T07:23:52;17.73;;;15.83;;
7997;SDS011;4044;49.814;7.828;2022-11-15T07:26:18;17.47;;;15.17;;
7997;SDS011;4044;49.814;7.828;2022-11-15T07:28:43;22.00;;;17.00;;
7997;SDS011;4044;49.814;7.828;2022-11-15T07:31:10;19.70;;;16.70;;
7997;SDS011;4044;49.814;7.828;2022-11-15T07:33:36;21.23;;;18.23;;
7997;SDS011;4044;49.814;7.828;2022-11-15T07:36:02;103.33;;;61.90;;
7997;SDS011;4044;49.814;7.828;2022-11-15T07:38:29;79.37;;;48.57;;
7997;SDS011;4044;49.814;7.828;2022-11-15T07:40:55;80.70;;;48.03;;
7997;SDS011;4044;49.814;7.828;2022-11-15T07:43:22;67.23;;;42.17;;
7997;SDS011;4044;49.814;7.828;2022-11-15T07:45:48;31.53;;;23.70;;
7997;SDS011;4044;49.814;7.828;2022-11-15T07:48:13;22.37;;;18.50;;
7997;SDS011;4044;49.814;7.828;2022-11-15T07:50:42;16.87;;;15.07;;
7997;SDS011;4044;49.814;7.828;2022-11-15T07:53:08;20.17;;;16.30;;
7997;SDS011;4044;49.814;7.828;2022-11-15T07:55:34;20.60;;;16.83;;
7997;SDS011;4044;49.814;7.828;2022-11-15T07:58:01;24.20;;;19.70;;
7997;SDS011;4044;49.814;7.828;2022-11-15T08:00:27;24.87;;;19.33;;
7997;SDS011;4044;49.814;7.828;2022-11-15T08:02:52;23.60;;;19.80;;
7997;SDS011;4044;49.814;7.828;2022-11-15T08:05:25;23.83;;;18.27;;
7997;SDS011;4044;49.814;7.828;2022-11-15T08:07:51;23.43;;;18.00;;
7997;SDS011;4044;49.814;7.828;2022-11-15T08:10:16;39.37;;;29.73;;
7997;SDS011;4044;49.814;7.828;2022-11-15T08:12:44;38.30;;;29.60;;
7997;SDS011;4044;49.814;7.828;2022-11-15T08:15:09;36.70;;;28.93;;
7997;SDS011;4044;49.814;7.828;2022-11-15T08:17:35;35.23;;;27.47;;
7997;SDS011;4044;49.814;7.828;2022-11-15T08:20:00;31.47;;;26.80;;
7997;SDS011;4044;49.814;7.828;2022-11-15T08:22:26;34.77;;;28.17;;
7997;SDS011;4044;49.814;7.828;2022-11-15T08:24:51;34.73;;;24.67;;
7997;SDS011;4044;49.814;7.828;2022-11-15T08:27:17;30.40;;;24.50;;
7997;SDS011;4044;49.814;7.828;2022-11-15T08:29:43;25.17;;;20.57;;
7997;SDS011;4044;49.814;7.828;2022-11-15T08:32:09;23.57;;;19.90;;
7997;SDS011;4044;49.814;7.828;2022-11-15T08:34:36;32.77;;;26.17;;
7997;SDS011;4044;49.814;7.828;2022-11-15T08:37:02;30.60;;;24.37;;
7997;SDS011;4044;49.814;7.828;2022-11-15T08:39:28;28.67;;;22.90;;
7997;SDS011;4044;49.814;7.828;2022-11-15T08:41:53;26.37;;;20.47;;
7997;SDS011;4044;49.814;7.828;2022-11-15T08:44:19;20.27;;;18.17;;
7997;SDS011;4044;49.814;7.828;2022-11-15T08:46:47;19.30;;;15.97;;
7997;SDS011;4044;49.814;7.828;2022-11-15T08:49:13;18.63;;;16.63;;
7997;SDS011;4044;49.814;7.828;2022-11-15T08:51:39;18.63;;;15.97;;
7997;SDS011;4044;49.814;7.828;2022-11-15T08:54:04;18.70;;;16.27;;
7997;SDS011;4044;49.814;7.828;2022-11-15T08:56:30;18.53;;;16.23;;
7997;SDS011;4044;49.814;7.828;2022-11-15T08:58:55;23.17;;;18.27;;
7997;SDS011;4044;49.814;7.828;2022-11-15T09:01:21;18.83;;;16.27;;
7997;SDS011;4044;49.814;7.828;2022-11-15T09:03:47;19.57;;;17.47;;
7997;SDS011;4044;49.814;7.828;2022-11-15T09:06:12;20.67;;;17.73;;
7997;SDS011;4044;49.814;7.828;2022-11-15T09:08:38;22.90;;;19.67;;
7997;SDS011;4044;49.814;7.828;2022-11-15T09:11:05;19.40;;;17.37;;
7997;SDS011;4044;49.814;7.828;2022-11-15T09:13:31;19.17;;;17.00;;
7997;SDS011;4044;49.814;7.828;2022-11-15T09:15:58;20.27;;;18.00;;
7997;SDS011;4044;49.814;7.828;2022-11-15T09:18:24;19.10;;;17.10;;
7997;SDS011;4044;49.814;7.828;2022-11-15T09:20:50;17.40;;;15.60;;
7997;SDS011;4044;49.814;7.828;2022-11-15T09:23:15;16.33;;;14.63;;
7997;SDS011;4044;49.814;7.828;2022-11-15T09:25:41;19.53;;;15.90;;
7997;SDS011;4044;49.814;7.828;2022-11-15T09:28:07;16.63;;;14.83;;
7997;SDS011;4044;49.814;7.828;2022-11-15T09:30:33;17.73;;;15.13;;
7997;SDS011;4044;49.814;7.828;2022-11-15T09:32:58;17.27;;;14.57;;
7997;SDS011;4044;49.814;7.828;2022-11-15T09:35:30;15.70;;;14.17;;
7997;SDS011;4044;49.814;7.828;2022-11-15T09:37:57;15.47;;;13.97;;
7997;SDS011;4044;49.814;7.828;2022-11-15T09:40:23;16.00;;;14.23;;
7997;SDS011;4044;49.814;7.828;2022-11-15T09:45:28;16.50;;;14.27;;
7997;SDS011;4044;49.814;7.828;2022-11-15T09:48:18;15.67;;;14.07;;
7997;SDS011;4044;49.814;7.828;2022-11-15T09:51:04;14.77;;;13.37;;
7997;SDS011;4044;49.814;7.828;2022-11-15T09:53:39;15.67;;;13.37;;
7997;SDS011;4044;49.814;7.828;2022-11-15T09:56:17;16.33;;;13.77;;
7997;SDS011;4044;49.814;7.828;2022-11-15T10:04:22;14.27;;;12.83;;
7997;SDS011;4044;49.814;7.828;2022-11-15T10:06:52;15.33;;;13.00;;
7997;SDS011;4044;49.814;7.828;2022-11-15T10:09:24;15.73;;;12.43;;
7997;SDS011;4044;49.814;7.828;2022-11-15T10:11:54;14.23;;;12.83;;
7997;SDS011;4044;49.814;7.828;2022-11-15T10:14:21;14.33;;;12.93;;
7997;SDS011;4044;49.814;7.828;2022-11-15T10:19:38;16.30;;;13.40;;
7997;SDS011;4044;49.814;7.828;2022-11-15T10:24:52;15.60;;;13.83;;
7997;SDS011;4044;49.814;7.828;2022-11-15T10:27:34;15.53;;;13.73;;
7997;SDS011;4044;49.814;7.828;2022-11-15T10:30:00;15.13;;;13.63;;
7997;SDS011;4044;49.814;7.828;2022-11-15T10:32:25;14.53;;;13.07;;
7997;SDS011;4044;49.814;7.828;2022-11-15T10:34:52;15.57;;;13.93;;
7997;SDS011;4044;49.814;7.828;2022-11-15T10:37:28;18.97;;;15.03;;
7997;SDS011;4044;49.814;7.828;2022-11-15T10:43:14;13.77;;;12.40;;
7997;SDS011;4044;49.814;7.828;2022-11-15T10:45:42;14.83;;;13.30;;
7997;SDS011;4044;49.814;7.828;2022-11-15T10:50:38;14.40;;;12.90;;
7997;SDS011;4044;49.814;7.828;2022-11-15T10:55:53;15.47;;;13.63;;
7997;SDS011;4044;49.814;7.828;2022-11-15T10:58:30;14.87;;;12.93;;
7997;SDS011;4044;49.814;7.828;2022-11-15T11:01:13;14.85;;;13.10;;
7997;SDS011;4044;49.814;7.828;2022-11-15T11:03:41;14.57;;;13.07;;
7997;SDS011;4044;49.814;7.828;2022-11-15T11:08:34;14.02;;;12.52;;
7997;SDS011;4044;49.814;7.828;2022-11-15T11:11:00;14.45;;;12.95;;
7997;SDS011;4044;49.814;7.828;2022-11-15T11:13:31;14.65;;;12.13;;
7997;SDS011;4044;49.814;7.828;2022-11-15T11:21:10;31.55;;;25.92;;
7997;SDS011;4044;49.814;7.828;2022-11-15T11:26:42;15.43;;;12.85;;
7997;SDS011;4044;49.814;7.828;2022-11-15T11:29:26;13.43;;;12.02;;
7997;SDS011;4044;49.814;7.828;2022-11-15T11:32:34;13.23;;;11.82;;
7997;SDS011;4044;49.814;7.828;2022-11-15T11:35:12;13.13;;;11.50;;
7997;SDS011;4044;49.814;7.828;2022-11-15T11:37:55;13.25;;;10.90;;
7997;SDS011;4044;49.814;7.828;2022-11-15T11:43:41;12.23;;;10.55;;
7997;SDS011;4044;49.814;7.828;2022-11-15T11:49:26;12.85;;;10.25;;
7997;SDS011;4044;49.814;7.828;2022-11-15T11:55:11;12.75;;;11.20;;
7997;SDS011;4044;49.814;7.828;2022-11-15T11:57:47;11.20;;;10.10;;
7997;SDS011;4044;49.814;7.828;2022-11-15T12:03:09;11.48;;;10.32;;
7997;SDS011;4044;49.814;7.828;2022-11-15T12:05:44;12.27;;;10.70;;
7997;SDS011;4044;49.814;7.828;2022-11-15T12:11:20;12.73;;;11.40;;
7997;SDS011;4044;49.814;7.828;2022-11-15T12:14:12;11.70;;;10.50;;
7997;SDS011;4044;49.814;7.828;2022-11-15T12:17:01;12.50;;;11.25;;
7997;SDS011;4044;49.814;7.828;2022-11-15T12:19:28;10.85;;;9.82;;
7997;SDS011;4044;49.814;7.828;2022-11-15T12:22:00;11.27;;;10.18;;
7997;SDS011;4044;49.814;7.828;2022-11-15T12:24:41;13.85;;;12.43;;
7997;SDS011;4044;49.814;7.828;2022-11-15T12:29:49;14.00;;;10.98;;
7997;SDS011;4044;49.814;7.828;2022-11-15T12:34:53;8.93;;;7.30;;
7997;SDS011;4044;49.814;7.828;2022-11-15T12:43:10;7.40;;;6.25;;
7997;SDS011;4044;49.814;7.828;2022-11-15T12:45:36;5.47;;;4.55;;
7997;SDS011;4044;49.814;7.828;2022-11-15T12:59:06;6.40;;;4.35;;
7997;SDS011;4044;49.814;7.828;2022-11-15T13:06:50;5.10;;;3.88;;
7997;SDS011;4044;49.814;7.828;2022-11-15T13:12:01;3.88;;;3.08;;
7997;SDS011;4044;49.814;7.828;2022-11-15T13:17:02;4.32;;;3.95;;
7997;SDS011;4044;49.814;7.828;2022-11-15T13:19:58;4.82;;;3.30;;
7997;SDS011;4044;49.814;7.828;2022-11-15T13:30:39;3.30;;;3.00;;
7997;SDS011;4044;49.814;7.828;2022-11-15T13:33:15;2.88;;;2.67;;
7997;SDS011;4044;49.814;7.828;2022-11-15T13:35:45;3.20;;;2.90;;
7997;SDS011;4044;49.814;7.828;2022-11-15T13:38:26;3.45;;;3.15;;
7997;SDS011;4044;49.814;7.828;2022-11-15T13:40:54;4.82;;;3.60;;
7997;SDS011;4044;49.814;7.828;2022-11-15T13:46:03;5.18;;;4.65;;
7997;SDS011;4044;49.814;7.828;2022-11-15T13:48:43;4.40;;;4.10;;
7997;SDS011;4044;49.814;7.828;2022-11-15T13:53:49;5.00;;;4.22;;
7997;SDS011;4044;49.814;7.828;2022-11-15T13:56:20;4.45;;;4.05;;
7997;SDS011;4044;49.814;7.828;2022-11-15T13:58:46;4.63;;;4.22;;
7997;SDS011;4044;49.814;7.828;2022-11-15T14:01:16;5.10;;;4.60;;
7997;SDS011;4044;49.814;7.828;2022-11-15T14:03:55;5.53;;;4.68;;
7997;SDS011;4044;49.814;7.828;2022-11-15T14:06:23;5.20;;;4.70;;
7997;SDS011;4044;49.814;7.828;2022-11-15T14:11:35;6.68;;;4.72;;
7997;SDS011;4044;49.814;7.828;2022-11-15T14:16:42;6.97;;;6.38;;
7997;SDS011;4044;49.814;7.828;2022-11-15T14:19:11;7.32;;;5.72;;
7997;SDS011;4044;49.814;7.828;2022-11-15T14:22:10;8.40;;;7.60;;
7997;SDS011;4044;49.814;7.828;2022-11-15T14:24:39;8.93;;;6.38;;
7997;SDS011;4044;49.814;7.828;2022-11-15T14:27:26;6.50;;;6.00;;
7997;SDS011;4044;49.814;7.828;2022-11-15T14:29:54;7.10;;;6.28;;
7997;SDS011;4044;49.814;7.828;2022-11-15T14:34:45;8.80;;;6.53;;
7997;SDS011;4044;49.814;7.828;2022-11-15T14:37:33;7.82;;;6.15;;
7997;SDS011;4044;49.814;7.828;2022-11-15T14:39:59;7.82;;;7.13;;
7997;SDS011;4044;49.814;7.828;2022-11-15T14:42:26;5.97;;;5.22;;
7997;SDS011;4044;49.814;7.828;2022-11-15T14:44:52;7.85;;;5.97;;
7997;SDS011;4044;49.814;7.828;2022-11-15T14:47:18;7.30;;;6.25;;
7997;SDS011;4044;49.814;7.828;2022-11-15T14:49:43;9.02;;;6.22;;
7997;SDS011;4044;49.814;7.828;2022-11-15T14:52:28;7.90;;;7.10;;
7997;SDS011;4044;49.814;7.828;2022-11-15T14:54:58;5.88;;;5.30;;
7997;SDS011;4044;49.814;7.828;2022-11-15T14:57:26;5.68;;;5.18;;
7997;SDS011;4044;49.814;7.828;2022-11-15T14:59:51;5.50;;;5.03;;
7997;SDS011;4044;49.814;7.828;2022-11-15T15:02:21;5.07;;;4.57;;
7997;SDS011;4044;49.814;7.828;2022-11-15T15:04:48;5.70;;;4.60;;
7997;SDS011;4044;49.814;7.828;2022-11-15T15:07:14;6.38;;;5.20;;
7997;SDS011;4044;49.814;7.828;2022-11-15T15:09:39;5.32;;;4.25;;
7997;SDS011;4044;49.814;7.828;2022-11-15T15:12:11;5.82;;;5.22;;
7997;SDS011;4044;49.814;7.828;2022-11-15T15:14:43;10.30;;;7.95;;
7997;SDS011;4044;49.814;7.828;2022-11-15T15:17:09;10.05;;;7.25;;
7997;SDS011;4044;49.814;7.828;2022-11-15T15:19:35;10.82;;;9.57;;
7997;SDS011;4044;49.814;7.828;2022-11-15T15:22:00;8.52;;;6.80;;
7997;SDS011;4044;49.814;7.828;2022-11-15T15:24:26;6.85;;;6.15;;
7997;SDS011;4044;49.814;7.828;2022-11-15T15:26:51;7.40;;;6.32;;
7997;SDS011;4044;49.814;7.828;2022-11-15T15:29:17;5.90;;;5.00;;
7997;SDS011;4044;49.814;7.828;2022-11-15T15:31:42;5.50;;;5.00;;
7997;SDS011;4044;49.814;7.828;2022-11-15T15:34:08;6.00;;;5.40;;
7997;SDS011;4044;49.814;7.828;2022-11-15T15:36:33;5.88;;;5.28;;
7997;SDS011;4044;49.814;7.828;2022-11-15T15:38:59;6.25;;;5.53;;
7997;SDS011;4044;49.814;7.828;2022-11-15T15:41:24;7.20;;;5.65;;
7997;SDS011;4044;49.814;7.828;2022-11-15T15:43:50;6.95;;;5.70;;
7997;SDS011;4044;49.814;7.828;2022-11-15T15:46:17;5.03;;;4.53;;
7997;SDS011;4044;49.814;7.828;2022-11-15T15:48:44;6.65;;;5.95;;
7997;SDS011;4044;49.814;7.828;2022-11-15T15:51:09;5.30;;;4.90;;
7997;SDS011;4044;49.814;7.828;2022-11-15T15:53:35;5.35;;;4.85;;
7997;SDS011;4044;49.814;7.828;2022-11-15T15:56:01;5.72;;;5.20;;
7997;SDS011;4044;49.814;7.828;2022-11-15T15:58:26;6.28;;;5.13;;
7997;SDS011;4044;49.814;7.828;2022-11-15T16:00:53;5.38;;;4.88;;
7997;SDS011;4044;49.814;7.828;2022-11-15T16:03:18;7.38;;;5.35;;
7997;SDS011;4044;49.814;7.828;2022-11-15T16:05:44;5.80;;;5.25;;
7997;SDS011;4044;49.814;7.828;2022-11-15T16:08:16;6.70;;;5.22;;
7997;SDS011;4044;49.814;7.828;2022-11-15T16:10:46;5.78;;;5.28;;
7997;SDS011;4044;49.814;7.828;2022-11-15T16:13:13;5.78;;;4.80;;
7997;SDS011;4044;49.814;7.828;2022-11-15T16:15:39;5.15;;;4.70;;
7997;SDS011;4044;49.814;7.828;2022-11-15T16:18:05;5.28;;;4.60;;
7997;SDS011;4044;49.814;7.828;2022-11-15T16:20:37;5.63;;;4.63;;
7997;SDS011;4044;49.814;7.828;2022-11-15T16:23:06;5.32;;;4.60;;
7997;SDS011;4044;49.814;7.828;2022-11-15T16:25:34;5.10;;;4.60;;
7997;SDS011;4044;49.814;7.828;2022-11-15T16:28:10;5.47;;;5.07;;
7997;SDS011;4044;49.814;7.828;2022-11-15T16:30:44;5.57;;;5.07;;
7997;SDS011;4044;49.814;7.828;2022-11-15T16:33:10;5.03;;;4.45;;
7997;SDS011;4044;49.814;7.828;2022-11-15T16:35:35;6.95;;;5.20;;
7997;SDS011;4044;49.814;7.828;2022-11-15T16:38:01;6.00;;;5.40;;
7997;SDS011;4044;49.814;7.828;2022-11-15T16:40:28;6.20;;;4.93;;
7997;SDS011;4044;49.814;7.828;2022-11-15T16:42:55;5.95;;;5.18;;
7997;SDS011;4044;49.814;7.828;2022-11-15T16:45:26;5.50;;;5.00;;
7997;SDS011;4044;49.814;7.828;2022-11-15T16:47:53;5.10;;;4.68;;
7997;SDS011;4044;49.814;7.828;2022-11-15T16:52:48;5.90;;;5.40;;
7997;SDS011;4044;49.814;7.828;2022-11-15T16:55:15;5.90;;;5.30;;
7997;SDS011;4044;49.814;7.828;2022-11-15T16:57:40;5.28;;;4.80;;
7997;SDS011;4044;49.814;7.828;2022-11-15T17:00:07;6.32;;;5.78;;
7997;SDS011;4044;49.814;7.828;2022-11-15T17:02:35;5.43;;;4.93;;
7997;SDS011;4044;49.814;7.828;2022-11-15T17:05:01;4.70;;;4.30;;
7997;SDS011;4044;49.814;7.828;2022-11-15T17:07:26;5.70;;;4.38;;
7997;SDS011;4044;49.814;7.828;2022-11-15T17:09:51;5.15;;;4.50;;
7997;SDS011;4044;49.814;7.828;2022-11-15T17:12:17;8.33;;;7.20;;
7997;SDS011;4044;49.814;7.828;2022-11-15T17:14:42;11.10;;;9.93;;
7997;SDS011;4044;49.814;7.828;2022-11-15T17:17:10;6.93;;;6.33;;